Time;durP1;ratioP1;P1;durP2;ratioP2;P2;SDS_P1;SDS_P2;PMS_P1;PMS_P2;Temp;Humidity;BMP_temperature;BMP_pressure;BME280_temperature;BME280_humidity;BME280_pressure;Samples;Min_cycle;Max_cycle;Signal;HPM_P1;HPM_P2
2022/10/09 00:01:18;;;;;;;12.18;4.90;;;;;;;;;;10539749;28;20070;-74
2022/10/09 00:06:23;;;;;;;11.88;4.35;;;;;;;;;;10553016;28;20042;-75
2022/10/09 00:11:27;;;;;;;11.07;4.63;;;;;;;;;;10549862;28;20090;-75
2022/10/09 00:16:30;;;;;;;11.38;4.40;;;;;;;;;;10530215;28;20485;-74
2022/10/09 00:21:35;;;;;;;8.40;3.47;;;;;;;;;;10556251;28;20532;-74
2022/10/09 00:26:38;;;;;;;10.63;3.88;;;;;;;;;;10567984;27;20052;-74
2022/10/09 00:31:40;;;;;;;8.85;3.60;;;;;;;;;;10563375;28;20040;-74
2022/10/09 00:36:45;;;;;;;14.98;4.55;;;;;;;;;;10557895;28;20077;-73
2022/10/09 00:41:54;;;;;;;;;;;;;;;;;;10557691;28;20122;-76
2022/10/09 00:46:59;;;;;;;6.88;3.63;;;;;;;;;;10559541;28;19929;-74
2022/10/09 00:52:06;;;;;;;10.60;4.10;;;;;;;;;;10556339;28;20040;-74
2022/10/09 00:57:09;;;;;;;8.65;3.28;;;;;;;;;;10554494;28;20556;-76
2022/10/09 01:02:12;;;;;;;11.38;3.80;;;;;;;;;;10559534;28;20044;-77
2022/10/09 01:07:22;;;;;;;7.70;3.38;;;;;;;;;;10556816;28;20075;-75
2022/10/09 01:12:30;;;;;;;6.88;3.67;;;;;;;;;;10538588;28;20068;-75
2022/10/09 01:17:35;;;;;;;9.48;3.67;;;;;;;;;;10552528;28;20373;-74
2022/10/09 01:22:45;;;;;;;9.77;4.55;;;;;;;;;;10554652;28;20059;-75
2022/10/09 01:27:51;;;;;;;5.63;3.53;;;;;;;;;;10555458;28;20115;-74
2022/10/09 01:32:55;;;;;;;8.90;4.03;;;;;;;;;;10558198;28;20046;-74
2022/10/09 01:37:59;;;;;;;8.88;3.75;;;;;;;;;;10556729;28;20396;-75
2022/10/09 01:43:04;;;;;;;8.77;4.03;;;;;;;;;;10555104;28;20075;-74
2022/10/09 01:48:09;;;;;;;10.40;3.70;;;;;;;;;;10552236;28;20044;-75
2022/10/09 01:53:11;;;;;;;;;;;;;;;;;;10544714;28;20047;-75
2022/10/09 01:58:19;;;;;;;10.82;3.53;;;;;;;;;;10564825;28;20450;-75
2022/10/09 02:03:22;;;;;;;9.60;3.90;;;;;;;;;;10554363;28;20164;-74
2022/10/09 02:08:25;;;;;;;9.32;4.03;;;;;;;;;;10567842;28;20130;-75
2022/10/09 02:13:30;;;;;;;10.00;4.45;;;;;;;;;;10562218;28;20042;-74
2022/10/09 02:18:35;;;;;;;12.95;4.53;;;;;;;;;;10570382;27;20040;-75
2022/10/09 02:23:40;;;;;;;12.43;4.80;;;;;;;;;;10560883;27;20066;-74
2022/10/09 02:28:42;;;;;;;;;;;;;;;;;;10551031;28;20054;-74
2022/10/09 02:33:55;;;;;;;12.07;4.65;;;;;;;;;;10571521;28;19973;-76
2022/10/09 02:38:58;;;;;;;9.63;4.60;;;;;;;;;;10570034;28;20492;-74
2022/10/09 02:44:07;;;;;;;12.40;4.75;;;;;;;;;;10571987;28;20062;-74
2022/10/09 02:49:14;;;;;;;10.00;4.93;;;;;;;;;;10570472;28;20051;-74
2022/10/09 02:54:17;;;;;;;8.13;4.03;;;;;;;;;;10562106;28;20443;-74
2022/10/09 02:59:20;;;;;;;9.60;4.57;;;;;;;;;;10559640;28;20054;-74
2022/10/09 03:04:24;;;;;;;8.50;3.83;;;;;;;;;;10564906;28;20114;-74
2022/10/09 03:09:27;;;;;;;11.43;4.90;;;;;;;;;;10542876;28;20405;-75
2022/10/09 03:14:35;;;;;;;11.85;4.82;;;;;;;;;;10564899;28;20079;-74
2022/10/09 03:19:40;;;;;;;9.57;4.80;;;;;;;;;;10554006;28;20044;-74
2022/10/09 03:24:42;;;;;;;11.90;4.75;;;;;;;;;;10563465;28;20067;-75
2022/10/09 03:29:48;;;;;;;11.00;4.40;;;;;;;;;;10559718;28;20043;-77
2022/10/09 03:34:53;;;;;;;8.68;4.72;;;;;;;;;;10565095;28;20046;-74
2022/10/09 03:39:56;;;;;;;10.15;4.50;;;;;;;;;;10567914;27;20036;-75
2022/10/09 03:45:03;;;;;;;9.63;4.30;;;;;;;;;;10563699;28;20032;-75
2022/10/09 03:50:08;;;;;;;11.55;4.82;;;;;;;;;;10544400;28;20241;-75
2022/10/09 03:55:10;;;;;;;12.50;4.38;;;;;;;;;;10561162;28;20043;-74
2022/10/09 04:00:17;;;;;;;9.80;4.47;;;;;;;;;;10560060;28;20108;-75
2022/10/09 04:05:22;;;;;;;9.95;3.83;;;;;;;;;;10561418;28;20183;-74
2022/10/09 04:10:25;;;;;;;9.40;3.70;;;;;;;;;;10555623;28;20043;-74
2022/10/09 04:15:28;;;;;;;11.45;4.03;;;;;;;;;;10556537;28;20115;-74
2022/10/09 04:20:32;;;;;;;5.63;2.53;;;;;;;;;;10555056;28;20044;-74
2022/10/09 04:25:34;;;;;;;;;;;;;;;;;;10565445;28;20089;-74
2022/10/09 04:30:37;;;;;;;10.05;4.13;;;;;;;;;;10562093;28;19924;-74
2022/10/09 04:35:44;;;;;;;9.53;3.80;;;;;;;;;;10561007;28;20035;-75
2022/10/09 04:40:55;;;;;;;8.45;4.00;;;;;;;;;;10534614;28;20301;-73
2022/10/09 04:45:58;;;;;;;12.73;4.30;;;;;;;;;;10544395;28;20039;-75
2022/10/09 04:51:05;;;;;;;10.88;3.50;;;;;;;;;;10538735;28;20058;-74
2022/10/09 04:56:09;;;;;;;9.38;3.53;;;;;;;;;;10560034;28;20042;-74
2022/10/09 05:01:16;;;;;;;7.50;3.72;;;;;;;;;;10557757;28;20047;-74
2022/10/09 05:06:24;;;;;;;10.23;3.90;;;;;;;;;;10551743;28;20154;-76
2022/10/09 05:11:28;;;;;;;8.07;3.47;;;;;;;;;;10558004;28;20035;-73
2022/10/09 05:16:31;;;;;;;10.52;4.00;;;;;;;;;;10560309;28;20044;-74
2022/10/09 05:21:52;;;;;;;8.27;3.67;;;;;;;;;;10555269;28;20056;-74
2022/10/09 05:26:54;;;;;;;;;;;;;;;;;;10545920;28;20092;-75
2022/10/09 05:31:57;;;;;;;7.30;3.15;;;;;;;;;;10569464;28;19930;-75
2022/10/09 05:37:01;;;;;;;9.65;3.75;;;;;;;;;;10564126;28;20035;-75
2022/10/09 05:42:04;;;;;;;;;;;;;;;;;;10584426;27;20028;-74
2022/10/09 05:47:07;;;;;;;9.20;3.10;;;;;;;;;;10564653;28;19946;-75
2022/10/09 05:52:11;;;;;;;12.65;3.35;;;;;;;;;;10564035;28;20039;-74
2022/10/09 05:57:13;;;;;;;7.68;3.50;;;;;;;;;;10563430;27;20043;-75
2022/10/09 06:02:16;;;;;;;7.93;3.10;;;;;;;;;;10566150;28;20043;-75
2022/10/09 06:07:21;;;;;;;7.75;3.28;;;;;;;;;;10556579;27;20039;-74
2022/10/09 06:12:26;;;;;;;11.55;3.97;;;;;;;;;;10558696;28;20067;-74
2022/10/09 06:17:29;;;;;;;8.40;3.38;;;;;;;;;;10569378;28;20028;-75
2022/10/09 06:22:33;;;;;;;7.37;2.90;;;;;;;;;;10571397;28;20135;-74
2022/10/09 06:27:36;;;;;;;8.63;3.40;;;;;;;;;;10560206;28;20436;-74
2022/10/09 06:32:39;;;;;;;5.13;2.72;;;;;;;;;;10559863;28;20338;-75
2022/10/09 06:37:44;;;;;;;7.95;3.45;;;;;;;;;;10563060;27;20048;-74
2022/10/09 06:42:50;;;;;;;10.60;3.63;;;;;;;;;;10551040;28;20047;-73
2022/10/09 06:47:54;;;;;;;7.22;3.50;;;;;;;;;;10566649;28;20509;-77
2022/10/09 06:52:58;;;;;;;8.30;3.83;;;;;;;;;;10547156;28;20413;-75
2022/10/09 06:58:01;;;;;;;12.60;4.68;;;;;;;;;;10567053;28;20032;-75
2022/10/09 07:03:04;;;;;;;7.65;3.33;;;;;;;;;;10558826;28;20063;-75
2022/10/09 07:08:09;;;;;;;7.83;3.07;;;;;;;;;;10552452;28;20699;-75
2022/10/09 07:13:11;;;;;;;;;;;;;;;;;;10563084;28;20043;-75
2022/10/09 07:18:15;;;;;;;9.07;3.30;;;;;;;;;;10560177;28;19919;-75
2022/10/09 07:23:18;;;;;;;;;;;;;;;;;;10563949;28;20409;-75
2022/10/09 07:28:23;;;;;;;11.63;4.13;;;;;;;;;;10540333;27;19931;-76
2022/10/09 07:33:26;;;;;;;9.85;4.13;;;;;;;;;;10558356;28;20087;-76
2022/10/09 07:38:29;;;;;;;8.75;4.55;;;;;;;;;;10563213;28;20046;-75
2022/10/09 07:43:36;;;;;;;8.48;3.90;;;;;;;;;;10559901;28;20047;-76
2022/10/09 07:48:40;;;;;;;8.50;3.85;;;;;;;;;;10557278;28;20028;-76
2022/10/09 07:53:43;;;;;;;13.27;5.45;;;;;;;;;;10560377;28;20124;-76
2022/10/09 07:58:49;;;;;;;10.07;3.63;;;;;;;;;;10570322;27;20039;-76
2022/10/09 08:03:53;;;;;;;7.20;3.90;;;;;;;;;;10529509;28;20856;-76
2022/10/09 08:08:57;;;;;;;7.83;3.33;;;;;;;;;;10546244;27;20070;-77
2022/10/09 08:14:01;;;;;;;9.13;4.07;;;;;;;;;;10553061;27;20070;-76
2022/10/09 08:19:04;;;;;;;7.25;3.70;;;;;;;;;;10561257;27;20035;-76
2022/10/09 08:24:07;;;;;;;11.20;4.60;;;;;;;;;;10532161;28;20036;-77
2022/10/09 08:29:12;;;;;;;7.67;4.00;;;;;;;;;;10551889;28;20046;-77
2022/10/09 08:34:15;;;;;;;10.70;4.82;;;;;;;;;;10526580;28;20043;-76
2022/10/09 08:39:18;;;;;;;10.47;4.40;;;;;;;;;;10546140;28;20127;-78
2022/10/09 08:44:24;;;;;;;11.57;4.13;;;;;;;;;;10535467;28;20036;-76
2022/10/09 08:49:32;;;;;;;8.98;3.58;;;;;;;;;;10549845;28;20039;-75
2022/10/09 08:54:35;;;;;;;6.40;3.20;;;;;;;;;;10548860;28;20240;-76
2022/10/09 08:59:40;;;;;;;6.95;3.50;;;;;;;;;;10555783;28;20039;-76
2022/10/09 09:04:47;;;;;;;10.43;3.67;;;;;;;;;;10561505;28;20031;-77
2022/10/09 09:10:00;;;;;;;5.53;3.20;;;;;;;;;;10548993;28;20042;-75
2022/10/09 09:15:20;;;;;;;8.07;3.78;;;;;;;;;;10547432;28;20046;-78
2022/10/09 09:20:24;;;;;;;8.38;3.90;;;;;;;;;;10549458;28;20109;-76
2022/10/09 09:25:29;;;;;;;9.13;3.92;;;;;;;;;;10547190;28;20406;-75
2022/10/09 09:30:35;;;;;;;8.98;4.03;;;;;;;;;;10537663;28;20433;-76
2022/10/09 09:35:45;;;;;;;8.43;4.25;;;;;;;;;;10551564;28;20094;-77
2022/10/09 09:40:49;;;;;;;10.60;3.70;;;;;;;;;;10546354;28;20456;-75
2022/10/09 09:45:54;;;;;;;9.05;3.92;;;;;;;;;;10559338;28;20036;-74
2022/10/09 09:50:57;;;;;;;6.50;3.85;;;;;;;;;;10550231;28;20043;-76
2022/10/09 09:56:20;;;;;;;9.57;4.10;;;;;;;;;;10542162;28;20059;-74
2022/10/09 10:01:26;;;;;;;6.32;3.33;;;;;;;;;;10551915;28;20130;-74
2022/10/09 10:06:30;;;;;;;7.07;3.55;;;;;;;;;;10533623;28;20275;-75
2022/10/09 10:11:34;;;;;;;7.95;3.83;;;;;;;;;;10547264;28;20059;-76
2022/10/09 10:16:39;;;;;;;6.90;3.35;;;;;;;;;;10551415;28;20043;-75
2022/10/09 10:21:47;;;;;;;5.93;3.35;;;;;;;;;;10558819;28;20416;-76
2022/10/09 10:26:52;;;;;;;7.75;3.38;;;;;;;;;;10557110;28;20174;-74
2022/10/09 10:32:01;;;;;;;7.85;4.07;;;;;;;;;;10568096;28;20050;-76
2022/10/09 10:37:14;;;;;;;7.13;2.95;;;;;;;;;;10559877;28;20484;-74
2022/10/09 10:42:29;;;;;;;6.50;3.10;;;;;;;;;;10544246;28;20489;-75
2022/10/09 10:47:37;;;;;;;4.75;2.53;;;;;;;;;;10563190;27;20059;-75
2022/10/09 10:52:47;;;;;;;4.68;2.90;;;;;;;;;;10554888;28;20065;-74
2022/10/09 10:57:55;;;;;;;7.25;2.80;;;;;;;;;;10561890;27;20179;-74
2022/10/09 11:03:06;;;;;;;5.38;1.95;;;;;;;;;;10563722;28;21975;-74
2022/10/09 11:08:17;;;;;;;7.22;3.20;;;;;;;;;;10554211;27;20050;-76
2022/10/09 11:13:23;;;;;;;5.47;2.25;;;;;;;;;;10553919;27;20036;-75
2022/10/09 11:18:39;;;;;;;8.77;2.63;;;;;;;;;;10562318;28;20032;-76
2022/10/09 11:23:55;;;;;;;7.25;2.72;;;;;;;;;;10553195;28;20047;-77
2022/10/09 11:29:00;;;;;;;3.50;2.50;;;;;;;;;;10563576;28;20108;-75
2022/10/09 11:34:07;;;;;;;3.83;2.08;;;;;;;;;;10560004;27;20116;-74
2022/10/09 11:39:14;;;;;;;4.25;2.60;;;;;;;;;;10556763;28;20138;-76
2022/10/09 11:44:22;;;;;;;5.07;2.28;;;;;;;;;;10543003;28;20123;-75
2022/10/09 11:49:31;;;;;;;3.97;2.33;;;;;;;;;;10541611;28;20068;-76
2022/10/09 11:54:35;;;;;;;6.13;2.60;;;;;;;;;;10550075;28;20105;-75
2022/10/09 11:59:41;;;;;;;5.47;2.90;;;;;;;;;;10554961;28;20426;-75
2022/10/09 12:04:47;;;;;;;6.78;2.47;;;;;;;;;;10554167;28;20134;-77
2022/10/09 12:10:00;;;;;;;5.40;2.67;;;;;;;;;;10553848;28;20390;-75
2022/10/09 12:15:16;;;;;;;6.05;2.63;;;;;;;;;;10548042;28;20100;-75
2022/10/09 12:20:23;;;;;;;3.60;2.10;;;;;;;;;;10551702;28;20461;-75
2022/10/09 12:25:26;;;;;;;4.63;2.10;;;;;;;;;;10543474;28;20032;-75
2022/10/09 12:30:29;;;;;;;;;;;;;;;;;;10549005;28;20040;-76
2022/10/09 12:35:36;;;;;;;5.53;2.88;;;;;;;;;;10543853;28;20030;-76
2022/10/09 12:40:45;;;;;;;4.88;2.20;;;;;;;;;;10539863;28;20044;-76
2022/10/09 12:45:49;;;;;;;7.40;2.45;;;;;;;;;;10534220;28;20042;-75
2022/10/09 12:50:53;;;;;;;6.80;3.35;;;;;;;;;;10544728;28;20115;-74
2022/10/09 12:55:58;;;;;;;3.33;1.85;;;;;;;;;;10547898;28;20116;-77
2022/10/09 13:01:04;;;;;;;6.55;2.80;;;;;;;;;;10536037;28;20028;-74
2022/10/09 13:06:13;;;;;;;7.55;2.35;;;;;;;;;;10550404;28;20163;-74
2022/10/09 13:11:18;;;;;;;5.57;2.00;;;;;;;;;;10545537;28;20039;-76
2022/10/09 13:16:25;;;;;;;4.18;2.22;;;;;;;;;;10541854;28;20452;-75
2022/10/09 13:21:28;;;;;;;;;;;;;;;;;;10559481;28;20042;-74
2022/10/09 13:26:35;;;;;;;3.67;2.33;;;;;;;;;;10547860;28;20281;-76
2022/10/09 13:31:42;;;;;;;3.25;2.20;;;;;;;;;;10548725;28;20048;-74
2022/10/09 13:36:45;;;;;;;3.40;2.10;;;;;;;;;;10551428;28;20034;-74
2022/10/09 13:41:51;;;;;;;6.83;2.33;;;;;;;;;;10559449;28;20139;-75
2022/10/09 13:46:54;;;;;;;7.95;2.50;;;;;;;;;;10555683;27;20037;-73
2022/10/09 13:51:59;;;;;;;4.93;1.92;;;;;;;;;;10556048;27;20082;-76
2022/10/09 13:57:03;;;;;;;5.78;2.25;;;;;;;;;;10543356;28;20144;-76
2022/10/09 14:02:07;;;;;;;5.82;2.30;;;;;;;;;;10556534;27;20047;-75
2022/10/09 14:07:09;;;;;;;5.68;2.47;;;;;;;;;;10560217;27;20398;-74
2022/10/09 14:12:14;;;;;;;6.57;2.47;;;;;;;;;;10561246;27;20492;-75
2022/10/09 14:17:17;;;;;;;6.78;2.70;;;;;;;;;;10564294;28;20040;-76
2022/10/09 14:22:19;;;;;;;5.13;2.30;;;;;;;;;;10556227;27;20044;-76
2022/10/09 14:27:24;;;;;;;5.00;2.55;;;;;;;;;;10565800;28;20027;-75
2022/10/09 14:32:27;;;;;;;4.88;3.05;;;;;;;;;;10560278;28;20123;-76
2022/10/09 14:37:34;;;;;;;5.38;2.60;;;;;;;;;;10540783;27;20047;-76
2022/10/09 14:42:44;;;;;;;6.15;2.60;;;;;;;;;;10554709;27;20130;-76
2022/10/09 14:47:47;;;;;;;3.42;2.58;;;;;;;;;;10560753;27;20059;-76
2022/10/09 14:52:50;;;;;;;5.45;2.47;;;;;;;;;;10555635;27;20506;-75
2022/10/09 14:57:55;;;;;;;8.30;2.58;;;;;;;;;;10568095;27;20043;-76
2022/10/09 15:02:58;;;;;;;3.65;2.22;;;;;;;;;;10566086;27;20043;-76
2022/10/09 15:08:01;;;;;;;5.63;2.60;;;;;;;;;;10560659;27;20032;-75
2022/10/09 15:13:05;;;;;;;7.47;3.00;;;;;;;;;;10566217;27;20043;-75
2022/10/09 15:18:10;;;;;;;4.38;2.70;;;;;;;;;;10555293;27;20289;-76
2022/10/09 15:23:13;;;;;;;8.35;3.15;;;;;;;;;;10569354;27;20035;-75
2022/10/09 15:28:18;;;;;;;6.78;2.78;;;;;;;;;;10570511;27;20035;-76
2022/10/09 15:33:23;;;;;;;8.02;2.22;;;;;;;;;;10569160;27;20040;-76
2022/10/09 15:38:26;;;;;;;8.40;3.47;;;;;;;;;;10567260;27;20042;-76
2022/10/09 15:43:32;;;;;;;7.13;3.50;;;;;;;;;;10569853;27;20038;-76
2022/10/09 15:48:42;;;;;;;8.05;3.13;;;;;;;;;;10566478;27;20553;-75
2022/10/09 15:53:46;;;;;;;7.30;3.00;;;;;;;;;;10560801;27;20407;-75
2022/10/09 15:58:55;;;;;;;5.40;2.63;;;;;;;;;;10556016;28;20378;-75
2022/10/09 16:03:59;;;;;;;4.53;2.35;;;;;;;;;;10571287;27;20058;-75
2022/10/09 16:09:08;;;;;;;4.40;2.60;;;;;;;;;;10561297;27;20042;-75
2022/10/09 16:14:12;;;;;;;4.50;2.78;;;;;;;;;;10558840;27;20130;-74
2022/10/09 16:19:14;;;;;;;5.43;2.67;;;;;;;;;;10541169;27;20050;-77
2022/10/09 16:24:21;;;;;;;6.47;2.63;;;;;;;;;;10568084;27;20108;-75
2022/10/09 16:29:26;;;;;;;5.18;2.58;;;;;;;;;;10564559;27;20114;-75
2022/10/09 16:34:28;;;;;;;9.98;3.63;;;;;;;;;;10557538;28;20051;-73
2022/10/09 16:39:31;;;;;;;5.85;2.60;;;;;;;;;;10562248;28;20093;-72
2022/10/09 16:44:35;;;;;;;5.55;2.40;;;;;;;;;;10559839;28;20040;-73
2022/10/09 16:49:38;;;;;;;7.32;3.08;;;;;;;;;;10562298;27;20047;-73
2022/10/09 16:54:41;;;;;;;6.60;2.60;;;;;;;;;;10560392;27;20075;-75
2022/10/09 16:59:45;;;;;;;5.40;2.38;;;;;;;;;;10556021;28;20544;-75
2022/10/09 17:04:48;;;;;;;5.15;2.40;;;;;;;;;;10555955;28;20043;-74
2022/10/09 17:09:51;;;;;;;7.27;3.27;;;;;;;;;;10562427;28;20520;-76
2022/10/09 17:14:57;;;;;;;10.45;2.85;;;;;;;;;;10543322;28;20039;-75
2022/10/09 17:20:00;;;;;;;4.80;2.58;;;;;;;;;;10556359;27;20059;-75
2022/10/09 17:25:03;;;;;;;7.10;2.90;;;;;;;;;;10567681;27;20130;-75
2022/10/09 17:30:08;;;;;;;7.15;2.67;;;;;;;;;;10555911;27;20545;-75
2022/10/09 17:35:11;;;;;;;7.80;2.88;;;;;;;;;;10562546;27;20044;-75
2022/10/09 17:40:14;;;;;;;9.70;3.38;;;;;;;;;;10562763;27;20187;-75
2022/10/09 17:45:18;;;;;;;12.20;4.03;;;;;;;;;;10560621;27;20495;-74
2022/10/09 17:50:20;;;;;;;;;;;;;;;;;;10564171;27;20036;-74
2022/10/09 17:55:23;;;;;;;8.00;3.08;;;;;;;;;;10556835;27;19920;-74
2022/10/09 18:00:27;;;;;;;7.28;4.03;;;;;;;;;;10560482;27;20038;-74
2022/10/09 18:05:30;;;;;;;8.68;3.50;;;;;;;;;;10550874;27;20036;-74
2022/10/09 18:10:41;;;;;;;9.82;4.65;;;;;;;;;;10552218;28;20075;-75
2022/10/09 18:15:45;;;;;;;9.40;3.72;;;;;;;;;;10563602;27;20043;-74
2022/10/09 18:20:48;;;;;;;;;;;;;;;;;;10554707;27;20038;-75
2022/10/09 18:25:50;;;;;;;;;;;;;;;;;;10561966;28;20308;-75
2022/10/09 18:30:54;;;;;;;;;;;;;;;;;;10552223;27;19932;-75
2022/10/09 18:35:58;;;;;;;;;;;;;;;;;;10576731;27;19929;-74
2022/10/09 18:41:00;;;;;;;;;;;;;;;;;;10565957;27;19930;-75
2022/10/09 18:46:03;;;;;;;;;;;;;;;;;;10580508;27;19926;-75
2022/10/09 18:51:06;;;;;;;;;;;;;;;;;;10579240;27;19923;-76
2022/10/09 18:56:09;;;;;;;;;;;;;;;;;;10550875;27;20098;-75
2022/10/09 19:01:12;;;;;;;;;;;;;;;;;;10554562;27;19924;-75
2022/10/09 19:06:15;;;;;;;;;;;;;;;;;;10560655;27;20309;-75
2022/10/09 19:11:17;;;;;;;;;;;;;;;;;;10561860;27;19931;-74
2022/10/09 19:16:21;;;;;;;;;;;;;;;;;;10566125;27;20321;-74
2022/10/09 19:21:24;;;;;;;;;;;;;;;;;;10549683;27;19943;-76
2022/10/09 19:26:28;;;;;;;;;;;;;;;;;;10544173;28;19924;-77
2022/10/09 19:31:31;;;;;;;;;;;;;;;;;;10553240;27;20121;-74
2022/10/09 19:36:35;;;;;;;;;;;;;;;;;;10562012;27;19946;-75
2022/10/09 19:41:40;;;;;;;;;;;;;;;;;;10559231;27;20306;-75
2022/10/09 19:46:43;;;;;;;;;;;;;;;;;;10552893;28;19929;-75
2022/10/09 19:51:45;;;;;;;;;;;;;;;;;;10558272;28;20384;-73
2022/10/09 19:56:48;;;;;;;;;;;;;;;;;;10562407;27;20342;-75
2022/10/09 20:01:50;;;;;;;;;;;;;;;;;;10561599;27;19926;-75
2022/10/09 20:06:58;;;;;;;;;;;;;;;;;;10561103;28;19920;-73
2022/10/09 20:12:00;;;;;;;;;;;;;;;;;;10562496;28;19920;-73
2022/10/09 20:17:03;;;;;;;;;;;;;;;;;;10557705;28;19934;-75
2022/10/09 20:22:05;;;;;;;;;;;;;;;;;;10561682;27;20356;-75
2022/10/09 20:27:08;;;;;;;;;;;;;;;;;;10558722;28;19927;-75
2022/10/09 20:32:11;;;;;;;;;;;;;;;;;;10561062;27;19967;-75
2022/10/09 20:37:13;;;;;;;;;;;;;;;;;;10552810;28;19920;-76
2022/10/09 20:42:16;;;;;;;;;;;;;;;;;;10553607;28;20010;-75
2022/10/09 20:47:19;;;;;;;;;;;;;;;;;;10555016;27;19959;-75
2022/10/09 20:52:21;;;;;;;;;;;;;;;;;;10560648;27;19966;-75
2022/10/09 20:57:24;;;;;;;;;;;;;;;;;;10555153;28;19934;-74
2022/10/09 21:02:26;;;;;;;;;;;;;;;;;;10527780;28;20281;-75
2022/10/09 21:07:29;;;;;;;;;;;;;;;;;;10541547;28;19919;-73
2022/10/09 21:12:32;;;;;;;;;;;;;;;;;;10541070;28;19928;-75
2022/10/09 21:17:34;;;;;;;;;;;;;;;;;;10547255;28;19927;-77
2022/10/09 21:22:37;;;;;;;;;;;;;;;;;;10547651;28;19923;-75
2022/10/09 21:27:39;;;;;;;;;;;;;;;;;;10555467;28;20299;-76
2022/10/09 21:32:42;;;;;;;;;;;;;;;;;;10556962;28;20348;-74
2022/10/09 21:37:44;;;;;;;;;;;;;;;;;;10556939;28;19938;-75
2022/10/09 21:42:47;;;;;;;;;;;;;;;;;;10553460;28;20414;-74
2022/10/09 21:47:49;;;;;;;;;;;;;;;;;;10558291;28;20018;-75
2022/10/09 21:52:52;;;;;;;;;;;;;;;;;;10543754;28;20038;-73
2022/10/09 21:57:55;;;;;;;;;;;;;;;;;;10565546;28;19998;-73
2022/10/09 22:02:57;;;;;;;;;;;;;;;;;;10557505;28;19926;-75
2022/10/09 22:08:03;;;;;;;;;;;;;;;;;;10562850;28;19926;-74
2022/10/09 22:13:05;;;;;;;;;;;;;;;;;;10572330;27;20328;-74
2022/10/09 22:18:08;;;;;;;;;;;;;;;;;;10561456;27;19962;-75
2022/10/09 22:23:10;;;;;;;;;;;;;;;;;;10560520;28;19926;-74
2022/10/09 22:28:13;;;;;;;;;;;;;;;;;;10562848;27;19920;-74
2022/10/09 22:33:15;;;;;;;;;;;;;;;;;;10560325;27;19924;-74
2022/10/09 22:38:17;;;;;;;;;;;;;;;;;;10558034;27;19934;-75
2022/10/09 22:43:20;;;;;;;;;;;;;;;;;;10566904;27;19920;-74
2022/10/09 22:48:23;;;;;;;;;;;;;;;;;;10568932;27;20467;-74
2022/10/09 22:53:26;;;;;;;;;;;;;;;;;;10554829;28;20843;-74
2022/10/09 22:58:28;;;;;;;;;;;;;;;;;;10564656;27;19919;-73
2022/10/09 23:03:31;;;;;;;;;;;;;;;;;;10551941;27;20372;-74
2022/10/09 23:08:34;;;;;;;;;;;;;;;;;;10567558;27;19924;-74
2022/10/09 23:13:36;;;;;;;;;;;;;;;;;;10557301;27;19919;-74
2022/10/09 23:18:39;;;;;;;;;;;;;;;;;;10553139;27;19973;-75
2022/10/09 23:23:42;;;;;;;;;;;;;;;;;;10573968;27;20586;-75
2022/10/09 23:28:44;;;;;;;;;;;;;;;;;;10564737;27;19928;-74
2022/10/09 23:33:47;;;;;;;;;;;;;;;;;;10548622;27;19924;-76
2022/10/09 23:38:49;;;;;;;;;;;;;;;;;;10563094;27;20014;-75
2022/10/09 23:43:51;;;;;;;;;;;;;;;;;;10554435;28;20323;-74
2022/10/09 23:48:54;;;;;;;;;;;;;;;;;;10570055;27;19919;-75
2022/10/09 23:53:56;;;;;;;;;;;;;;;;;;10553993;28;19963;-77
2022/10/09 23:58:59;;;;;;;;;;;;;;;;;;10565600;27;19951;-75
